Weather Models
Both GFS & NAM
00z 06z 12z 18z
24hr Precip
00z 06z 12z 18z
36hr Simulated radar
00z 06z 12z 18z
SKEWT Soundings
00z 12z
Current Conditions (Updated 2:45pm on 12/12/17)
Temperature
 46°
-0.31
47°  
37°  
0
10
20
30
40
50
60
70
80
90
100
Dew Point
31°
35°  
22°  
-20
-10
0
10
20
30
40
50
60
70
80
Wind Chill
42°
47°  
30°  
-20
-10
0
10
20
30
40
50
60
70
80
Wind Chill
Humidity
56%
70% 
53% 
0
10
20
30
40
50
60
70
80
90
100
Barometer
29.48
   Steady
29.93  
29.48  
28.00
28.30
28.60
28.90
29.20
29.50
29.80
30.10
30.40
30.70
31.00
Temperature
Dew Point
Humidity
Pressure
Wind
7mph
 NW
Daily Rain
.00
.05
.10
.15
.20
.25
.30
.35
.40
.45
.50
Rain Today
 0.01" 
Month Rain
0.00
0.20
0.40
0.60
0.80
1.00
1.20
1.40
1.60
1.80
2.00
Month Rain
 0.61" 
Year Rain
0.00
5.00
10.00
15.00
20.00
25.00
30.00
35.00
40.00
45.00
50.00
Year Rain
 38.34" 
Sun & Moon Data
Sunrise 7:13am
Sunset 4:35pm
Moonrise 1:38am
Moonset 1:42pm
Moon % 31%
Other Rain Data
Past Hour 0.00 Past 24 Hours 0.02
Past 3 Hours 0.00 Past 7 Days 0.61
Past 6 Hours 0.00
Cloud Height
3698


Current Front Map
Current Satellite map
7 Day Forecast
NWS Forecast for Philadelphia PA
National Weather Service Forecast for: Philadelphia PA
Issued by: National Weather Service Philadelphia, PA
Updated: 12:38 pm EST Dec 12, 2017

Philadelphia
 
This
Afternoon
This Afternoon: A slight chance of showers.  Mostly cloudy, with a high near 49. West wind 9 to 13 mph, with gusts as high as 23 mph.  Chance of precipitation is 20%.
Slight Chance
Showers
Tonight

Tonight: Mostly clear, with a low around 22. West wind around 15 mph, with gusts as high as 33 mph.
Mostly Clear
Wednesday

Wednesday: Mostly sunny, with a high near 31. West wind 16 to 18 mph, with gusts as high as 34 mph.
Mostly Sunny
Wednesday
Night
Wednesday Night: A chance of snow showers.  Mostly cloudy, with a low around 23. West wind 8 to 13 mph becoming light  after midnight.  Chance of precipitation is 40%. Little or no snow accumulation expected.
Chance Snow
Showers
Thursday

Thursday: A chance of snow showers before 1pm.  Mostly cloudy, with a high near 34. Northwest wind around 6 mph.  Chance of precipitation is 30%. Little or no snow accumulation expected.
Chance Snow
Showers
Thursday
Night
Thursday Night: Mostly cloudy, with a low around 23.
Mostly Cloudy
Friday

Friday: A chance of snow.  Mostly cloudy, with a high near 33. Chance of precipitation is 30%.
Chance Snow
Friday
Night
Friday Night: Mostly cloudy, with a low around 23.
Mostly Cloudy
Saturday

Saturday: Mostly sunny, with a high near 37.
Mostly Sunny
Hi 49 °F Lo 22 °F Hi 31 °F Lo 23 °F Hi 34 °F Lo 23 °F Hi 33 °F Lo 23 °F Hi 37 °F

 

This Afternoon
 
A slight chance of showers. Mostly cloudy, with a high near 49. West wind 9 to 13 mph, with gusts as high as 23 mph. Chance of precipitation is 20%.
Tonight
 
Mostly clear, with a low around 22. West wind around 15 mph, with gusts as high as 33 mph.
Wednesday
 
Mostly sunny, with a high near 31. West wind 16 to 18 mph, with gusts as high as 34 mph.
Wednesday Night
 
A chance of snow showers. Mostly cloudy, with a low around 23. West wind 8 to 13 mph becoming light after midnight. Chance of precipitation is 40%. Little or no snow accumulation expected.
Thursday
 
A chance of snow showers before 1pm. Mostly cloudy, with a high near 34. Northwest wind around 6 mph. Chance of precipitation is 30%. Little or no snow accumulation expected.
Thursday Night
 
Mostly cloudy, with a low around 23.
Friday
 
A chance of snow. Mostly cloudy, with a high near 33. Chance of precipitation is 30%.
Friday Night
 
Mostly cloudy, with a low around 23.
Saturday
 
Mostly sunny, with a high near 37.
Saturday Night
 
Partly cloudy, with a low around 26.
Sunday
 
Partly sunny, with a high near 44.
Sunday Night
 
A chance of rain and snow showers. Mostly cloudy, with a low around 32. Chance of precipitation is 30%.
Monday
 
A chance of showers. Partly sunny, with a high near 45. Chance of precipitation is 30%.

 

Forecast from NOAA-NWS for Philadelphia PA.

Area Weather Current Conditions
Nearby METAR Reports

KPHL - Philadelphia, Pennsylvania
Updated: Tue, 12-Dec-2017 1:54pm EST
Overcast
Overcast
 Wind from WNW
Wind: WNW 8 mph , 13 km/h
Temperature: 46°F , 8°C
Wind Chill: 42°F , 6°C
Dew Point: 30°F , -1°C
Humidity: 53%
Barometer: 29.48 inHg , 998.3 hPa
Clouds: Overcast
Visibility: 10 miles , 16 km
Cloud details: Partly Cloudy 6000 ft
Overcast 7000 ft
2017/12/12 18:54 KPHL 121854Z 29007KT 260V330 10SM SCT060 OVC070 08/M01 A2948 RMK AO2 SLP983 T00781006 $
KMPO - Mt. Pocono, Pennsylvania
Updated: Tue, 12-Dec-2017 2:40pm EST
Light snow, Mist, Overcast
Light snow, Mist, Overcast
 Wind from W
Wind: W 12 mph , 19 km/h
Temperature: 30°F , -1°C
Wind Chill: 20°F , -7°C
Dew Point: 30°F , -1°C
Humidity: 100%
Barometer: 29.39 inHg , 995.3 hPa
Summary: Light snow, Mist
Clouds: Overcast
Visibility: 3 miles , 5 km
Cloud details: Few Clouds 1000 ft
Mostly Cloudy 1400 ft
Overcast 3200 ft
2017/12/12 19:40 KMPO 121940Z AUTO 27010KT 3SM -SN BR FEW010 BKN014 OVC032 M01/M01 A2939 RMK AO2 SNB09 P0000 T10061011
 
KACY - Atlantic City, New Jersey
Updated: Tue, 12-Dec-2017 1:54pm EST
Partly Cloudy
Partly Cloudy
 Wind from W
Wind: W 12 mph , 19 km/h
Temperature: 50°F , 10°C
Wind Chill: 45°F , 7°C
Dew Point: 34°F , 1°C
Humidity: 54%
Barometer: 29.46 inHg , 997.6 hPa
Clouds: Partly Cloudy
Visibility: 10 miles , 16 km
Cloud details: Partly Cloudy 4000 ft
Partly Cloudy 11000 ft
2017/12/12 18:54 KACY 121854Z 28010KT 10SM SCT040 SCT110 10/01 A2946 RMK AO2 SLP977 T01000011
KMIV - Millville, New Jersey
Updated: Tue, 12-Dec-2017 1:54pm EST
Light rain, Overcast
Light rain, Overcast
 Wind from WNW
Wind: WNW 8 mph , 13 km/h
Temperature: 46°F , 8°C
Wind Chill: 42°F , 6°C
Dew Point: 34°F , 1°C
Humidity: 62%
Barometer: 29.48 inHg , 998.3 hPa
Summary: Light Rain
Clouds: Overcast
Visibility: 10 miles , 16 km
Cloud details: Mostly Cloudy 4700 ft
Mostly Cloudy 5500 ft
Overcast 7000 ft
2017/12/12 18:54 KMIV 121854Z AUTO 29007KT 10SM -RA BKN047 BKN055 OVC070 08/01 A2948 RMK AO2 RAB41 SLP983 P0000 T00830006
 
KWWD - Wildwood, New Jersey
Updated: Tue, 12-Dec-2017 1:55pm EST
Few Clouds
Few Clouds
 Wind from WNW
Wind: WNW 10 mph , 17 km/h
Temperature: 48°F , 9°C
Wind Chill: 44°F , 7°C
Dew Point: 37°F , 3°C
Humidity: 66%
Barometer: 29.49 inHg , 998.6 hPa
Clouds: Few Clouds
Visibility: 10 miles , 16 km
Cloud details: Few Clouds 11000 ft
2017/12/12 18:55 KWWD 121855Z AUTO 29009KT 10SM FEW110 09/03 A2949 RMK AO2 SLP989 T00890028
KDOV - Dover Afb, Delaware
Updated: Tue, 12-Dec-2017 1:56pm EST
Overcast
Overcast
 Wind from W
Wind: W 9 mph , 15 km/h
Temperature: 46°F , 8°C
Wind Chill: 41°F , 5°C
Dew Point: 36°F , 2°C
Humidity: 66%
Barometer: 29.48 inHg , 998.3 hPa
Clouds: Overcast
Visibility: 10 miles , 16 km
Cloud details: Overcast 10000 ft
2017/12/12 18:56 KDOV 121856Z 27008KT 10SM OVC100 08/02 A2948 RMK AO2A SLP986 T00820016 $
Severe Weather Map
Recent Forum Post
[Philadelphia] 2017 -2018 Winter snow forecast by JC December 06, 2017, 02:00:35 AM
[Philadelphia] Request for Philly Snow Data by JC February 14, 2017, 08:42:21 PM
[Philadelphia] 2016 -2017 Winter snow forecast by JC December 01, 2016, 04:56:31 AM
[Philadelphia] Winter forecast 2016-2017 by xyonist November 30, 2016, 01:14:08 PM
[Philadelphia] 102.7 last Saturday by JC August 20, 2016, 03:26:22 AM
[Philadelphia] 2015 -2016 Winter snow forecast by JC April 19, 2016, 09:42:40 AM
[Philadelphia] Latest Models on Weekend Storm (Photos) by JC January 23, 2016, 12:01:03 PM
[Philadelphia] Possible large snow storm for end of week ? by JC January 21, 2016, 09:17:47 AM